createdAt,value
2017-10-19T00:00:04.568Z,37.60
2017-10-19T00:02:32.338Z,37.50
2017-10-19T00:04:59.762Z,37.40
2017-10-19T00:07:27.250Z,37.60
2017-10-19T00:09:55.007Z,37.60
2017-10-19T00:12:22.626Z,37.50
2017-10-19T00:14:50.815Z,37.80
2017-10-19T00:17:18.301Z,37.80
2017-10-19T00:19:45.735Z,37.90
2017-10-19T00:22:13.211Z,38.00
2017-10-19T00:24:40.652Z,38.10
2017-10-19T00:27:08.081Z,37.90
2017-10-19T00:29:35.520Z,38.30
2017-10-19T00:32:03.045Z,38.50
2017-10-19T00:34:30.806Z,39.10
2017-10-19T00:36:58.223Z,38.30
2017-10-19T00:39:25.648Z,38.10
2017-10-19T00:41:53.887Z,38.30
2017-10-19T00:44:21.444Z,38.20
2017-10-19T00:46:48.884Z,38.50
2017-10-19T00:49:16.460Z,38.20
2017-10-19T00:51:44.091Z,38.10
2017-10-19T00:54:11.515Z,38.20
2017-10-19T00:56:39.136Z,38.00
2017-10-19T00:59:06.592Z,37.80
2017-10-19T01:01:34.219Z,37.60
2017-10-19T01:04:01.803Z,37.50
2017-10-19T01:06:29.235Z,37.40
2017-10-19T01:08:56.674Z,37.60
2017-10-19T01:11:24.116Z,37.50
2017-10-19T01:13:51.545Z,37.40
2017-10-19T01:16:19.088Z,37.30
2017-10-19T01:18:46.526Z,37.30
2017-10-19T01:21:14.009Z,37.00
2017-10-19T01:23:41.431Z,36.80
2017-10-19T01:26:08.916Z,36.70
2017-10-19T01:28:36.377Z,36.70
2017-10-19T01:31:03.823Z,36.20
2017-10-19T01:33:31.284Z,35.60
2017-10-19T01:35:58.722Z,35.00
2017-10-19T01:38:26.199Z,34.40
2017-10-19T01:40:53.622Z,34.30
2017-10-19T01:43:21.140Z,34.50
2017-10-19T01:45:48.568Z,35.70
2017-10-19T01:48:16.009Z,35.40
2017-10-19T01:50:43.471Z,35.80
2017-10-19T01:53:10.928Z,36.10
2017-10-19T01:55:38.354Z,36.50
2017-10-19T01:58:05.793Z,36.80
2017-10-19T02:00:33.225Z,37.20
2017-10-19T02:03:00.760Z,37.80
2017-10-19T02:05:28.384Z,37.60
2017-10-19T02:07:55.984Z,37.70
2017-10-19T02:10:23.745Z,37.40
2017-10-19T02:12:52.070Z,36.80
2017-10-19T02:15:19.491Z,36.80
2017-10-19T02:17:46.955Z,37.00
2017-10-19T02:20:14.381Z,37.40
2017-10-19T02:22:41.940Z,37.70
2017-10-19T02:25:09.408Z,37.60
2017-10-19T02:27:36.835Z,37.20
2017-10-19T02:30:04.313Z,37.10
2017-10-19T02:32:31.952Z,37.50
2017-10-19T02:34:59.397Z,37.00
2017-10-19T02:37:26.863Z,36.60
2017-10-19T02:39:54.393Z,36.50
2017-10-19T02:42:21.824Z,35.90
2017-10-19T02:44:49.361Z,36.80
2017-10-19T02:47:16.817Z,37.00
2017-10-19T02:49:44.278Z,37.00
2017-10-19T02:52:12.029Z,37.00
2017-10-19T02:54:39.451Z,37.70
2017-10-19T02:57:07.682Z,37.00
2017-10-19T02:59:35.112Z,37.00
2017-10-19T03:02:02.781Z,37.70
2017-10-19T03:04:30.240Z,37.40
2017-10-19T03:06:57.674Z,37.70
2017-10-19T03:09:25.103Z,37.00
2017-10-19T03:11:52.537Z,37.00
2017-10-19T03:14:20.065Z,37.00
2017-10-19T03:16:47.513Z,37.40
2017-10-19T03:19:14.940Z,38.10
2017-10-19T03:21:42.427Z,38.60
2017-10-19T03:24:10.088Z,39.20
2017-10-19T03:26:37.517Z,39.70
2017-10-19T03:29:05.001Z,39.50
2017-10-19T03:31:32.473Z,39.80
2017-10-19T03:33:59.920Z,40.50
2017-10-19T03:36:27.356Z,40.50
2017-10-19T03:38:54.827Z,40.80
2017-10-19T03:41:22.392Z,40.90
2017-10-19T03:43:49.827Z,40.70
2017-10-19T03:46:17.257Z,40.90
2017-10-19T03:48:44.692Z,40.90
2017-10-19T03:51:12.137Z,40.90
2017-10-19T03:53:39.672Z,41.20
2017-10-19T03:56:07.099Z,41.20
2017-10-19T03:58:34.536Z,41.30
2017-10-19T04:01:02.035Z,41.60
2017-10-19T04:03:29.796Z,42.00
2017-10-19T04:05:57.232Z,41.70
2017-10-19T04:08:24.729Z,41.30
2017-10-19T04:10:52.357Z,41.30
2017-10-19T04:13:19.848Z,41.30
2017-10-19T04:15:47.327Z,42.00
2017-10-19T04:18:15.543Z,42.00
2017-10-19T04:20:43.110Z,42.00
2017-10-19T04:23:10.676Z,42.20
2017-10-19T04:25:38.099Z,42.10
2017-10-19T04:28:05.598Z,41.90
2017-10-19T04:30:33.043Z,41.60
2017-10-19T04:33:00.464Z,41.60
2017-10-19T04:35:27.957Z,41.90
2017-10-19T04:37:55.388Z,42.80
2017-10-19T04:40:22.870Z,43.00
2017-10-19T04:42:50.326Z,43.30
2017-10-19T04:45:17.765Z,43.50
2017-10-19T04:47:45.186Z,43.60
2017-10-19T04:50:12.705Z,43.40
2017-10-19T04:52:40.331Z,42.60
2017-10-19T04:55:07.921Z,43.20
2017-10-19T04:57:35.384Z,42.90
2017-10-19T05:00:02.825Z,43.60
2017-10-19T05:02:30.251Z,43.70
2017-10-19T05:04:57.687Z,43.50
2017-10-19T05:07:25.206Z,43.70
2017-10-19T05:09:52.646Z,42.80
2017-10-19T05:12:20.081Z,42.50
2017-10-19T05:14:47.524Z,42.40
2017-10-19T05:17:15.025Z,42.60
2017-10-19T05:19:42.468Z,42.50
2017-10-19T05:22:09.904Z,42.60
2017-10-19T05:24:39.131Z,43.70
2017-10-19T05:27:06.689Z,43.70
2017-10-19T05:29:34.144Z,44.20
2017-10-19T05:32:01.568Z,43.90
2017-10-19T05:34:29.008Z,43.80
2017-10-19T05:36:56.435Z,43.80
2017-10-19T05:39:23.889Z,43.50
2017-10-19T05:41:51.439Z,44.00
2017-10-19T05:44:18.937Z,44.20
2017-10-19T05:46:46.352Z,43.70
2017-10-19T05:49:13.810Z,43.70
2017-10-19T05:51:41.231Z,44.10
2017-10-19T05:54:08.720Z,43.30
2017-10-19T05:56:36.481Z,43.50
2017-10-19T05:59:03.914Z,43.20
2017-10-19T06:01:31.397Z,43.00
2017-10-19T06:03:59.027Z,42.90
2017-10-19T06:06:26.617Z,42.40
2017-10-19T06:08:54.062Z,42.80
2017-10-19T06:11:21.505Z,43.30
2017-10-19T06:13:48.981Z,43.00
2017-10-19T06:16:16.437Z,42.90
2017-10-19T06:18:43.893Z,43.30
2017-10-19T06:21:11.354Z,42.10
2017-10-19T06:23:38.805Z,42.40
2017-10-19T06:26:06.264Z,42.40
2017-10-19T06:28:33.697Z,43.60
2017-10-19T06:31:01.169Z,43.90
2017-10-19T06:33:28.631Z,44.20
2017-10-19T06:35:56.094Z,44.50
2017-10-19T06:38:23.719Z,44.80
2017-10-19T06:40:51.316Z,44.80
2017-10-19T06:43:18.941Z,45.20
2017-10-19T06:45:46.372Z,45.10
2017-10-19T06:48:14.781Z,45.30
2017-10-19T06:50:42.360Z,45.20
2017-10-19T06:53:09.865Z,45.30
2017-10-19T06:55:37.455Z,44.30
2017-10-19T06:58:04.903Z,44.80
2017-10-19T07:00:32.339Z,44.60
2017-10-19T07:03:00.572Z,44.30
2017-10-19T07:05:28.020Z,44.20
2017-10-19T07:07:55.466Z,43.70
2017-10-19T07:10:22.926Z,43.80
2017-10-19T07:12:50.384Z,43.90
2017-10-19T07:15:17.816Z,43.50
2017-10-19T07:17:45.256Z,44.30
2017-10-19T07:20:12.761Z,44.20
2017-10-19T07:22:40.221Z,44.10
2017-10-19T07:25:07.639Z,44.10
2017-10-19T07:27:35.079Z,44.60
2017-10-19T07:30:02.516Z,44.50
2017-10-19T07:32:29.948Z,44.20
2017-10-19T07:34:57.363Z,43.90
2017-10-19T07:37:24.808Z,44.00
2017-10-19T07:39:53.065Z,42.80
2017-10-19T07:42:21.400Z,42.90
2017-10-19T07:44:48.886Z,42.80
2017-10-19T07:47:16.453Z,43.00
2017-10-19T07:49:43.939Z,43.60
2017-10-19T07:52:11.452Z,44.30
2017-10-19T07:54:39.904Z,42.50
2017-10-19T07:57:07.344Z,42.60
2017-10-19T07:59:34.767Z,42.00
2017-10-19T08:02:02.276Z,42.70
2017-10-19T08:04:29.711Z,41.90
2017-10-19T08:06:57.187Z,41.50
2017-10-19T08:09:24.607Z,42.20
2017-10-19T08:11:52.039Z,42.00
2017-10-19T08:14:19.554Z,42.60
2017-10-19T08:16:46.987Z,42.80
2017-10-19T08:19:14.465Z,42.40
2017-10-19T08:21:41.904Z,41.80
2017-10-19T08:24:09.327Z,41.70
2017-10-19T08:26:37.536Z,41.10
2017-10-19T08:29:05.124Z,41.00
2017-10-19T08:31:32.635Z,40.90
2017-10-19T08:34:00.057Z,40.20
2017-10-19T08:36:27.580Z,40.90
2017-10-19T08:38:55.011Z,40.40
2017-10-19T08:41:22.447Z,40.20
2017-10-19T08:43:49.949Z,39.60
2017-10-19T08:46:17.388Z,39.90
2017-10-19T08:48:44.879Z,39.30
2017-10-19T08:51:12.500Z,39.30
2017-10-19T08:53:39.961Z,40.40
2017-10-19T08:56:07.443Z,39.70
2017-10-19T08:58:34.912Z,39.20
2017-10-19T09:01:02.455Z,38.50
2017-10-19T09:03:29.902Z,37.80
2017-10-19T09:05:57.325Z,37.80
2017-10-19T09:08:24.766Z,38.10
2017-10-19T09:10:52.184Z,37.90
2017-10-19T09:13:19.643Z,37.10
2017-10-19T09:15:47.168Z,37.40
2017-10-19T09:18:14.609Z,37.90
2017-10-19T09:20:42.115Z,37.60
2017-10-19T09:23:09.561Z,37.40
2017-10-19T09:25:36.987Z,37.50
2017-10-19T09:28:04.425Z,36.80
2017-10-19T09:30:31.859Z,35.60
2017-10-19T09:32:59.283Z,35.60
2017-10-19T09:35:26.711Z,35.50
2017-10-19T09:37:54.295Z,35.20
2017-10-19T09:40:21.736Z,35.30
2017-10-19T09:42:49.167Z,34.40
2017-10-19T09:45:16.583Z,35.10
2017-10-19T09:47:44.016Z,34.10
2017-10-19T09:50:11.448Z,34.50
2017-10-19T09:52:38.912Z,33.80
2017-10-19T09:55:06.433Z,34.00
2017-10-19T09:57:33.948Z,33.50
2017-10-19T10:00:01.382Z,33.20
2017-10-19T10:02:28.807Z,33.50
2017-10-19T10:04:56.227Z,33.90
2017-10-19T10:07:23.699Z,33.80
2017-10-19T10:09:51.229Z,33.80
2017-10-19T10:12:18.684Z,33.60
2017-10-19T10:14:46.121Z,33.90
2017-10-19T10:17:13.553Z,33.60
2017-10-19T10:19:41.069Z,32.20
2017-10-19T10:22:08.688Z,31.70
2017-10-19T10:24:36.191Z,31.10
2017-10-19T10:27:03.737Z,31.00
2017-10-19T10:29:31.384Z,31.10
2017-10-19T10:31:58.949Z,28.70
2017-10-19T10:34:26.381Z,28.70
2017-10-19T10:36:53.817Z,28.90
2017-10-19T10:39:21.312Z,28.90
2017-10-19T10:41:48.771Z,28.60
2017-10-19T10:44:16.198Z,28.10
2017-10-19T10:46:43.684Z,27.20
2017-10-19T10:49:11.145Z,27.30
2017-10-19T10:51:38.599Z,28.00
2017-10-19T10:54:06.023Z,25.70
2017-10-19T10:56:33.444Z,26.40
2017-10-19T10:59:00.880Z,25.70
2017-10-19T11:01:28.422Z,22.90
2017-10-19T11:03:55.869Z,22.60
2017-10-19T11:06:23.335Z,23.80
2017-10-19T11:08:50.767Z,22.60
2017-10-19T11:11:18.203Z,21.50
2017-10-19T11:13:45.712Z,21.70
2017-10-19T11:16:13.153Z,22.00
2017-10-19T11:18:40.578Z,19.90
2017-10-19T11:21:08.009Z,21.20
2017-10-19T11:23:35.444Z,21.00
2017-10-19T11:26:02.883Z,21.10
2017-10-19T11:28:30.508Z,20.70
2017-10-19T11:30:57.939Z,20.50
2017-10-19T11:33:25.672Z,21.00
2017-10-19T11:35:53.112Z,20.30
2017-10-19T11:38:20.536Z,20.70
2017-10-19T11:40:47.957Z,20.70
2017-10-19T11:43:15.432Z,20.20
2017-10-19T11:45:42.943Z,20.40
2017-10-19T11:48:10.402Z,20.10
2017-10-19T11:50:37.805Z,19.40
2017-10-19T11:53:05.231Z,19.20
2017-10-19T11:55:32.656Z,18.60
2017-10-19T11:58:00.182Z,17.90
2017-10-19T12:00:27.609Z,17.90
2017-10-19T12:02:55.035Z,17.20
2017-10-19T12:05:22.460Z,16.60
2017-10-19T12:07:50.663Z,16.80
2017-10-19T12:10:18.088Z,16.70
2017-10-19T12:12:45.524Z,16.30
2017-10-19T12:15:13.032Z,17.40
2017-10-19T12:17:40.484Z,16.10
2017-10-19T12:20:07.909Z,16.10
2017-10-19T12:22:35.409Z,15.40
2017-10-19T12:25:02.824Z,15.50
2017-10-19T12:27:30.321Z,15.80
2017-10-19T12:29:58.090Z,16.00
2017-10-19T12:32:25.495Z,15.00
2017-10-19T12:34:52.997Z,14.70
2017-10-19T12:37:20.421Z,14.40
2017-10-19T12:39:47.908Z,14.30
2017-10-19T12:42:15.329Z,13.80
2017-10-19T12:44:42.764Z,13.70
2017-10-19T12:47:10.181Z,12.90
2017-10-19T12:49:37.616Z,13.30
2017-10-19T12:52:05.165Z,13.40
2017-10-19T12:54:32.636Z,12.40
2017-10-19T12:57:00.096Z,12.70
2017-10-19T12:59:27.561Z,12.00
2017-10-19T13:01:55.043Z,10.40
2017-10-19T13:04:22.649Z,10.40
2017-10-19T13:06:50.241Z,10.00
2017-10-19T13:09:17.696Z,10.20
2017-10-19T13:11:45.115Z,9.70
2017-10-19T13:14:12.592Z,9.00
2017-10-19T13:16:40.029Z,8.40
2017-10-19T13:19:07.443Z,7.80
2017-10-19T13:21:34.959Z,7.10
2017-10-19T13:24:02.375Z,7.20
2017-10-19T13:26:29.812Z,6.00
2017-10-19T13:28:57.329Z,6.10
2017-10-19T13:31:24.759Z,6.10
2017-10-19T13:33:52.170Z,6.20
2017-10-19T13:36:19.709Z,6.30
2017-10-19T13:38:47.137Z,5.70
2017-10-19T13:41:14.564Z,6.00
2017-10-19T13:43:42.063Z,6.00
2017-10-19T13:46:09.475Z,6.70
2017-10-19T13:48:36.989Z,6.60
2017-10-19T13:51:04.453Z,7.00
2017-10-19T13:53:32.209Z,6.60
2017-10-19T13:55:59.651Z,7.00
2017-10-19T13:58:27.067Z,7.90
2017-10-19T14:00:54.568Z,7.00
2017-10-19T14:03:22.208Z,7.00
2017-10-19T14:05:49.699Z,7.30
2017-10-19T14:08:17.178Z,6.90
2017-10-19T14:10:44.700Z,7.80
2017-10-19T14:13:12.115Z,7.50
2017-10-19T14:15:39.545Z,7.70
2017-10-19T14:18:06.976Z,7.70
2017-10-19T14:20:34.400Z,7.00
2017-10-19T14:23:01.922Z,7.50
2017-10-19T14:25:29.437Z,7.70
2017-10-19T14:27:56.908Z,8.30
2017-10-19T14:30:24.330Z,8.60
2017-10-19T14:32:51.764Z,8.70
2017-10-19T14:35:19.188Z,9.30
2017-10-19T14:37:46.620Z,8.60
2017-10-19T14:40:14.052Z,8.50
2017-10-19T14:42:41.640Z,9.10
2017-10-19T14:45:09.087Z,9.80
2017-10-19T14:47:36.555Z,9.10
2017-10-19T14:50:03.956Z,8.90
2017-10-19T14:52:31.367Z,10.20
2017-10-19T14:54:58.912Z,9.70
2017-10-19T14:57:26.333Z,10.20
2017-10-19T14:59:53.833Z,10.50
2017-10-19T15:02:21.243Z,10.30
2017-10-19T15:04:48.742Z,10.10
2017-10-19T15:07:16.205Z,10.10
2017-10-19T15:09:43.661Z,10.10
2017-10-19T15:12:11.083Z,10.10
2017-10-19T15:14:38.574Z,10.20
2017-10-19T15:17:05.991Z,10.00
2017-10-19T15:19:33.426Z,10.20
2017-10-19T15:22:00.837Z,9.90
2017-10-19T15:24:28.407Z,9.80
2017-10-19T15:26:55.811Z,10.00
2017-10-19T15:29:23.304Z,10.40
2017-10-19T15:31:50.716Z,10.30
2017-10-19T15:34:18.147Z,10.40
2017-10-19T15:36:45.580Z,10.80
2017-10-19T15:39:13.125Z,11.00
2017-10-19T15:41:40.541Z,11.00
2017-10-19T15:44:08.044Z,11.40
2017-10-19T15:46:35.465Z,11.60
2017-10-19T15:49:02.908Z,12.30
2017-10-19T15:51:30.304Z,12.30
2017-10-19T15:53:57.875Z,12.60
2017-10-19T15:56:25.320Z,12.80
2017-10-19T15:58:52.747Z,12.90
2017-10-19T16:01:20.163Z,13.40
2017-10-19T16:03:47.607Z,13.70
2017-10-19T16:06:15.152Z,14.20
2017-10-19T16:08:42.573Z,14.50
2017-10-19T16:11:11.152Z,14.80
2017-10-19T16:13:39.327Z,16.10
2017-10-19T16:16:06.763Z,16.10
2017-10-19T16:18:34.197Z,16.00
2017-10-19T16:21:01.623Z,16.50
2017-10-19T16:23:29.049Z,16.30
2017-10-19T16:25:57.248Z,16.40
2017-10-19T16:28:24.666Z,16.40
2017-10-19T16:30:52.102Z,16.80
2017-10-19T16:33:19.568Z,16.20
2017-10-19T16:35:47.005Z,16.00
2017-10-19T16:38:14.430Z,16.20
2017-10-19T16:40:41.860Z,16.30
2017-10-19T16:43:10.040Z,16.40
2017-10-19T16:45:37.541Z,16.40
2017-10-19T16:48:04.962Z,16.10
2017-10-19T16:50:32.378Z,16.10
2017-10-19T16:52:59.890Z,16.20
2017-10-19T16:55:27.345Z,16.30
2017-10-19T16:57:54.767Z,16.20
2017-10-19T17:00:22.267Z,15.80
2017-10-19T17:02:49.687Z,15.90
2017-10-19T17:05:17.116Z,16.00
2017-10-19T17:07:44.551Z,16.20
2017-10-19T17:10:12.100Z,16.60
2017-10-19T17:12:39.519Z,16.60
2017-10-19T17:15:06.943Z,16.60
2017-10-19T17:17:34.448Z,16.70
2017-10-19T17:20:01.908Z,16.90
2017-10-19T17:22:29.372Z,17.30
2017-10-19T17:24:56.825Z,17.60
2017-10-19T17:27:24.296Z,18.40
2017-10-19T17:29:51.911Z,18.80
2017-10-19T17:32:19.376Z,19.20
2017-10-19T17:34:46.955Z,18.60
2017-10-19T17:37:14.393Z,18.60
2017-10-19T17:39:41.872Z,19.00
2017-10-19T17:42:09.317Z,18.70
2017-10-19T17:44:36.787Z,19.00
2017-10-19T17:47:04.211Z,19.20
2017-10-19T17:49:31.637Z,18.90
2017-10-19T17:51:59.147Z,19.20
2017-10-19T17:54:26.603Z,19.70
2017-10-19T17:56:54.044Z,19.80
2017-10-19T17:59:21.468Z,19.80
2017-10-19T18:01:48.967Z,19.70
2017-10-19T18:04:16.434Z,19.80
2017-10-19T18:06:43.883Z,20.80
2017-10-19T18:09:11.305Z,20.20
2017-10-19T18:11:38.737Z,20.10
2017-10-19T18:14:06.288Z,20.20
2017-10-19T18:16:35.224Z,21.40
2017-10-19T18:19:02.659Z,21.30
2017-10-19T18:21:30.184Z,20.20
2017-10-19T18:23:57.604Z,20.10
2017-10-19T18:26:25.081Z,20.70
2017-10-19T18:28:52.538Z,20.30
2017-10-19T18:31:20.175Z,20.90
2017-10-19T18:33:47.662Z,21.50
2017-10-19T18:36:15.083Z,21.70
2017-10-19T18:38:42.663Z,22.40
2017-10-19T18:41:10.101Z,23.20
2017-10-19T18:43:37.525Z,24.00
2017-10-19T18:46:04.954Z,24.90
2017-10-19T18:48:32.393Z,25.00
2017-10-19T18:50:59.821Z,24.30
2017-10-19T18:53:27.325Z,24.40
2017-10-19T18:55:54.739Z,24.30
2017-10-19T18:58:22.172Z,24.40
2017-10-19T19:00:50.369Z,24.70
2017-10-19T19:03:17.815Z,24.70
2017-10-19T19:05:45.304Z,24.90
2017-10-19T19:08:12.741Z,25.00
2017-10-19T19:10:40.209Z,25.50
2017-10-19T19:13:07.649Z,26.10
2017-10-19T19:15:35.119Z,25.90
2017-10-19T19:18:02.561Z,26.20
2017-10-19T19:20:30.036Z,26.40
2017-10-19T19:22:57.470Z,26.60
2017-10-19T19:25:24.891Z,26.50
2017-10-19T19:27:52.403Z,27.50
2017-10-19T19:30:19.827Z,27.20
2017-10-19T19:32:47.315Z,26.90
2017-10-19T19:35:14.766Z,26.80
2017-10-19T19:37:42.207Z,26.90
2017-10-19T19:40:09.629Z,26.90
2017-10-19T19:42:37.477Z,27.70
2017-10-19T19:45:05.215Z,28.60
2017-10-19T19:47:32.863Z,29.10
2017-10-19T19:50:00.429Z,29.90
2017-10-19T19:52:27.859Z,30.10
2017-10-19T19:54:55.293Z,29.80
2017-10-19T19:57:22.725Z,29.60
2017-10-19T19:59:50.164Z,29.20
2017-10-19T20:02:17.615Z,29.00
2017-10-19T20:04:45.166Z,29.10
2017-10-19T20:07:12.628Z,29.10
2017-10-19T20:09:40.057Z,29.10
2017-10-19T20:12:07.476Z,29.00
2017-10-19T20:14:34.917Z,29.00
2017-10-19T20:17:02.457Z,29.40
2017-10-19T20:19:29.891Z,29.80
2017-10-19T20:21:57.310Z,29.90
2017-10-19T20:24:24.753Z,29.90
2017-10-19T20:26:52.190Z,29.70
2017-10-19T20:29:19.656Z,30.50
2017-10-19T20:31:47.093Z,30.30
2017-10-19T20:34:14.583Z,30.50
2017-10-19T20:36:42.013Z,30.60
2017-10-19T20:39:09.559Z,30.30
2017-10-19T20:41:37.208Z,30.70
2017-10-19T20:44:04.781Z,31.00
2017-10-19T20:46:32.409Z,30.50
2017-10-19T20:48:59.941Z,30.10
2017-10-19T20:55:56.545Z,31.00
2017-10-19T20:58:24.015Z,30.90
2017-10-19T21:00:51.472Z,30.30
2017-10-19T21:03:18.903Z,30.60
2017-10-19T21:05:46.375Z,30.50
2017-10-19T21:08:13.820Z,30.20
2017-10-19T21:10:41.249Z,30.00
2017-10-19T21:13:08.684Z,30.00
2017-10-19T21:15:36.125Z,29.80
2017-10-19T21:18:03.575Z,30.00
2017-10-19T21:20:31.005Z,30.40
2017-10-19T21:22:58.581Z,30.40
2017-10-19T21:25:26.008Z,30.60
2017-10-19T21:27:53.492Z,30.10
2017-10-19T21:30:21.132Z,30.00
2017-10-19T21:32:48.581Z,30.40
2017-10-19T21:35:16.107Z,31.10
2017-10-19T21:37:43.625Z,31.30
2017-10-19T21:40:11.071Z,31.40
2017-10-19T21:42:38.535Z,31.40
2017-10-19T21:45:05.964Z,31.30
2017-10-19T21:47:33.389Z,31.90
2017-10-19T21:50:00.829Z,31.90
2017-10-19T21:52:28.359Z,31.80
2017-10-19T21:54:55.796Z,31.50
2017-10-19T21:57:23.233Z,31.30
2017-10-19T21:59:50.656Z,31.30
2017-10-19T22:02:18.092Z,31.30
2017-10-19T22:04:45.524Z,31.30
2017-10-19T22:07:12.972Z,31.40
2017-10-19T22:09:40.464Z,31.50
2017-10-19T22:12:07.883Z,31.50
2017-10-19T22:14:35.347Z,31.50
2017-10-19T22:17:02.920Z,31.40
2017-10-19T22:19:30.351Z,31.70
2017-10-19T22:21:57.776Z,32.10
2017-10-19T22:24:25.207Z,32.20
2017-10-19T22:26:52.656Z,32.20
2017-10-19T22:29:20.129Z,32.50
2017-10-19T22:31:47.665Z,32.60
2017-10-19T22:34:15.113Z,32.60
2017-10-19T22:36:42.537Z,32.60
2017-10-19T22:39:10.026Z,32.80
2017-10-19T22:41:37.440Z,33.00
2017-10-19T22:44:04.937Z,32.80
2017-10-19T22:46:32.363Z,33.20
2017-10-19T22:48:59.797Z,33.30
2017-10-19T22:51:27.221Z,33.20
2017-10-19T22:53:54.666Z,33.30
2017-10-19T22:56:22.127Z,33.30
2017-10-19T22:58:49.591Z,33.80
2017-10-19T23:01:17.145Z,34.30
2017-10-19T23:03:44.577Z,34.60
2017-10-19T23:06:11.995Z,34.50
2017-10-19T23:08:39.428Z,34.40
2017-10-19T23:11:06.866Z,34.40
2017-10-19T23:13:34.293Z,34.40
2017-10-19T23:16:01.755Z,34.90
2017-10-19T23:18:29.331Z,34.80
2017-10-19T23:20:56.796Z,34.90
2017-10-19T23:23:24.379Z,34.60
2017-10-19T23:25:51.901Z,34.60
2017-10-19T23:28:19.335Z,34.60
2017-10-19T23:30:46.807Z,34.50
2017-10-19T23:33:14.287Z,34.80
2017-10-19T23:35:41.840Z,34.70
2017-10-19T23:38:09.292Z,34.70
2017-10-19T23:40:36.744Z,34.90
2017-10-19T23:43:04.205Z,34.50
2017-10-19T23:45:31.639Z,34.70
2017-10-19T23:47:59.087Z,35.10
2017-10-19T23:50:26.566Z,35.10
2017-10-19T23:52:54.003Z,35.30
2017-10-19T23:55:21.430Z,35.10
2017-10-19T23:57:48.934Z,35.50
